Time;durP1;ratioP1;P1;durP2;ratioP2;P2;SDS_P1;SDS_P2;PMS_P1;PMS_P2;Temp;Humidity;BMP_temperature;BMP_pressure;BME280_temperature;BME280_humidity;BME280_pressure;Samples;Min_cycle;Max_cycle;Signal;HPM_P1;HPM_P2
2023/03/04 00:01:44;;;;;;;86.80;48.47;;;;;;;;;;5094031;28;20422;-71
2023/03/04 00:04:29;;;;;;;87.97;47.75;;;;;;;;;;5095897;28;20055;-70
2023/03/04 00:07:17;;;;;;;83.53;47.08;;;;;;;;;;5095513;28;20020;-69
2023/03/04 00:10:04;;;;;;;79.20;46.20;;;;;;;;;;5096471;28;20425;-68
2023/03/04 00:12:49;;;;;;;83.35;47.05;;;;;;;;;;5096432;28;20097;-69
2023/03/04 00:15:35;;;;;;;86.20;47.03;;;;;;;;;;5094480;28;20039;-69
2023/03/04 00:18:20;;;;;;;85.40;47.42;;;;;;;;;;5095062;28;20043;-70
2023/03/04 00:21:06;;;;;;;82.20;45.83;;;;;;;;;;5080131;28;20024;-70
2023/03/04 00:23:51;;;;;;;82.18;45.55;;;;;;;;;;5094640;28;20067;-69
2023/03/04 00:26:37;;;;;;;81.53;44.60;;;;;;;;;;5093950;28;20104;-69
2023/03/04 00:29:23;;;;;;;81.20;45.97;;;;;;;;;;5097256;28;20027;-69
2023/03/04 00:32:08;;;;;;;84.13;44.92;;;;;;;;;;5096725;28;20455;-69
2023/03/04 00:34:54;;;;;;;78.82;44.80;;;;;;;;;;5094056;28;20120;-69
2023/03/04 00:37:40;;;;;;;90.80;47.38;;;;;;;;;;5094825;28;20020;-69
2023/03/04 00:40:26;;;;;;;81.80;44.58;;;;;;;;;;5094891;28;20027;-70
2023/03/04 00:43:11;;;;;;;73.78;43.13;;;;;;;;;;5094429;28;20106;-70
2023/03/04 00:45:57;;;;;;;78.78;44.35;;;;;;;;;;5093127;28;20030;-70
2023/03/04 00:48:43;;;;;;;84.25;44.38;;;;;;;;;;5094463;28;20052;-70
2023/03/04 00:51:28;;;;;;;79.15;43.47;;;;;;;;;;5094538;28;20107;-69
2023/03/04 00:54:14;;;;;;;83.60;46.20;;;;;;;;;;5093958;28;20027;-70
2023/03/04 00:56:59;;;;;;;75.47;42.30;;;;;;;;;;5094640;28;20020;-70
2023/03/04 00:59:45;;;;;;;82.45;43.70;;;;;;;;;;5094247;28;20305;-71
2023/03/04 01:02:30;;;;;;;77.07;42.78;;;;;;;;;;5094565;28;20027;-69
2023/03/04 01:05:16;;;;;;;79.57;42.80;;;;;;;;;;5094525;28;20066;-70
2023/03/04 01:08:02;;;;;;;78.50;42.67;;;;;;;;;;5092894;28;20020;-70
2023/03/04 01:10:48;;;;;;;76.80;41.25;;;;;;;;;;5093590;28;20085;-69
2023/03/04 01:13:34;;;;;;;78.43;41.55;;;;;;;;;;5079670;28;20085;-69
2023/03/04 01:16:19;;;;;;;71.72;41.60;;;;;;;;;;5094098;28;20013;-69
2023/03/04 01:19:05;;;;;;;74.68;42.00;;;;;;;;;;5093380;28;20020;-69
2023/03/04 01:21:50;;;;;;;74.57;41.60;;;;;;;;;;5093782;28;20030;-69
2023/03/04 01:24:36;;;;;;;72.53;39.78;;;;;;;;;;5093280;28;20023;-70
2023/03/04 01:27:22;;;;;;;76.22;40.20;;;;;;;;;;5094328;28;20028;-70
2023/03/04 01:30:08;;;;;;;73.90;41.65;;;;;;;;;;5094730;28;20023;-69
2023/03/04 01:32:54;;;;;;;73.38;39.85;;;;;;;;;;5093296;28;20053;-70
2023/03/04 01:35:40;;;;;;;77.57;41.72;;;;;;;;;;5094451;28;20043;-69
2023/03/04 01:38:25;;;;;;;68.63;38.95;;;;;;;;;;5093308;28;20062;-69
2023/03/04 01:41:12;;;;;;;73.75;39.60;;;;;;;;;;5094071;28;20020;-70
2023/03/04 01:43:59;;;;;;;70.47;38.35;;;;;;;;;;5095387;28;20031;-69
2023/03/04 01:46:52;;;;;;;65.90;38.13;;;;;;;;;;5081925;28;20413;-69
2023/03/04 01:49:38;;;;;;;69.93;38.78;;;;;;;;;;5098025;28;20030;-70
2023/03/04 01:52:26;;;;;;;70.38;37.78;;;;;;;;;;5096856;28;20023;-70
2023/03/04 01:55:16;;;;;;;71.45;38.20;;;;;;;;;;5097053;28;20036;-68
2023/03/04 01:58:04;;;;;;;68.18;37.40;;;;;;;;;;5097401;28;20028;-69
2023/03/04 02:00:49;;;;;;;63.50;37.00;;;;;;;;;;5097938;28;20040;-70
2023/03/04 02:03:35;;;;;;;74.20;39.33;;;;;;;;;;5097804;28;20013;-69
2023/03/04 02:06:21;;;;;;;67.05;37.60;;;;;;;;;;5083176;28;20349;-70
2023/03/04 02:09:07;;;;;;;68.07;38.20;;;;;;;;;;5097809;28;20016;-69
2023/03/04 02:11:53;;;;;;;71.22;38.30;;;;;;;;;;5095868;28;20024;-69
2023/03/04 02:14:38;;;;;;;74.25;38.80;;;;;;;;;;5096865;28;20091;-69
2023/03/04 02:17:25;;;;;;;65.80;37.70;;;;;;;;;;5077534;28;20024;-70
2023/03/04 02:20:11;;;;;;;70.25;37.80;;;;;;;;;;5075996;28;20028;-69
2023/03/04 02:23:15;;;;;;;69.32;38.03;;;;;;;;;;5075819;28;20089;-70
2023/03/04 02:26:14;;;;;;;67.43;37.38;;;;;;;;;;5076518;28;20468;-68
2023/03/04 02:29:00;;;;;;;69.10;36.63;;;;;;;;;;5061690;28;20497;-70
2023/03/04 02:31:47;;;;;;;69.65;36.38;;;;;;;;;;5061497;28;20432;-68
2023/03/04 02:34:34;;;;;;;66.97;36.05;;;;;;;;;;5077007;28;20025;-69
2023/03/04 02:37:20;;;;;;;71.15;37.40;;;;;;;;;;5075190;28;20028;-69
2023/03/04 02:40:09;;;;;;;69.68;36.97;;;;;;;;;;5076978;28;20490;-69
2023/03/04 02:42:57;;;;;;;65.60;36.42;;;;;;;;;;5062748;28;20024;-69
2023/03/04 02:45:44;;;;;;;74.25;36.67;;;;;;;;;;5076981;28;20445;-68
2023/03/04 02:48:30;;;;;;;61.55;34.08;;;;;;;;;;5082631;28;20360;-68
2023/03/04 02:51:16;;;;;;;65.47;35.50;;;;;;;;;;5062384;28;20425;-70
2023/03/04 02:54:02;;;;;;;65.07;35.97;;;;;;;;;;5075648;28;20028;-68
2023/03/04 02:56:48;;;;;;;68.85;35.58;;;;;;;;;;5076682;28;20381;-68
2023/03/04 02:59:35;;;;;;;66.80;36.70;;;;;;;;;;5074639;28;20017;-70
2023/03/04 03:02:20;;;;;;;71.85;37.03;;;;;;;;;;5076689;28;20061;-69
2023/03/04 03:05:06;;;;;;;67.68;35.40;;;;;;;;;;5075698;28;20357;-69
2023/03/04 03:07:52;;;;;;;66.28;35.83;;;;;;;;;;5074243;28;20051;-69
2023/03/04 03:10:37;;;;;;;70.20;35.95;;;;;;;;;;5075008;28;20028;-69
2023/03/04 03:13:23;;;;;;;64.35;34.13;;;;;;;;;;5065756;28;20024;-69
2023/03/04 03:16:09;;;;;;;63.95;34.58;;;;;;;;;;5077138;28;20028;-69
2023/03/04 03:18:54;;;;;;;68.15;36.25;;;;;;;;;;5078466;28;20099;-70
2023/03/04 03:21:40;;;;;;;69.10;35.55;;;;;;;;;;5074945;28;20020;-69
2023/03/04 03:24:25;;;;;;;68.43;35.05;;;;;;;;;;5075500;28;20078;-69
2023/03/04 03:27:11;;;;;;;62.38;33.47;;;;;;;;;;5077254;28;20039;-69
2023/03/04 03:29:57;;;;;;;67.28;33.50;;;;;;;;;;5075608;28;20071;-70
2023/03/04 03:32:42;;;;;;;67.05;34.97;;;;;;;;;;5075385;28;20344;-70
2023/03/04 03:35:28;;;;;;;68.97;34.45;;;;;;;;;;5075357;28;20094;-69
2023/03/04 03:38:14;;;;;;;61.75;32.95;;;;;;;;;;5075319;28;20016;-69
2023/03/04 03:40:59;;;;;;;65.28;33.80;;;;;;;;;;5075528;28;20024;-70
2023/03/04 03:43:45;;;;;;;61.38;33.45;;;;;;;;;;5075266;28;20055;-69
2023/03/04 03:46:30;;;;;;;64.57;33.70;;;;;;;;;;5074934;28;20024;-69
2023/03/04 03:49:16;;;;;;;60.10;32.85;;;;;;;;;;5075210;28;20055;-71
2023/03/04 03:52:02;;;;;;;65.85;33.70;;;;;;;;;;5074404;28;20036;-68
2023/03/04 03:54:47;;;;;;;58.80;32.53;;;;;;;;;;5075004;28;20029;-69
2023/03/04 03:57:33;;;;;;;61.75;32.55;;;;;;;;;;5075033;28;20357;-69
2023/03/04 04:00:19;;;;;;;59.13;31.95;;;;;;;;;;5060722;28;20040;-70
2023/03/04 04:03:04;;;;;;;59.90;31.58;;;;;;;;;;5076203;28;20013;-69
2023/03/04 04:05:50;;;;;;;56.05;30.70;;;;;;;;;;5074550;28;20055;-69
2023/03/04 04:08:36;;;;;;;58.63;30.92;;;;;;;;;;5060708;28;20441;-70
2023/03/04 04:11:21;;;;;;;60.58;31.73;;;;;;;;;;5074020;28;20472;-70
2023/03/04 04:14:08;;;;;;;60.58;31.98;;;;;;;;;;5060067;28;20468;-68
2023/03/04 04:16:53;;;;;;;57.95;31.38;;;;;;;;;;5076423;28;20103;-70
2023/03/04 04:19:39;;;;;;;62.55;32.30;;;;;;;;;;5060368;28;20047;-70
2023/03/04 04:22:25;;;;;;;56.35;30.10;;;;;;;;;;5075495;28;20476;-69
2023/03/04 04:25:11;;;;;;;57.22;30.38;;;;;;;;;;5074638;28;20024;-70
2023/03/04 04:27:56;;;;;;;55.53;29.65;;;;;;;;;;5073946;28;20356;-69
2023/03/04 04:30:42;;;;;;;58.95;30.23;;;;;;;;;;5074459;28;20481;-70
2023/03/04 04:33:27;;;;;;;55.72;30.00;;;;;;;;;;5074173;28;20025;-70
2023/03/04 04:36:15;;;;;;;55.30;29.77;;;;;;;;;;5074329;28;20401;-71
2023/03/04 04:39:00;;;;;;;56.55;30.08;;;;;;;;;;5074652;28;20040;-70
2023/03/04 04:41:46;;;;;;;52.88;29.08;;;;;;;;;;5059451;28;20449;-69
2023/03/04 04:44:32;;;;;;;61.53;32.28;;;;;;;;;;5074316;28;20425;-69
2023/03/04 04:47:17;;;;;;;62.78;33.08;;;;;;;;;;5073722;28;20028;-70
2023/03/04 04:50:03;;;;;;;72.15;39.20;;;;;;;;;;5073462;28;20048;-70
2023/03/04 04:52:49;;;;;;;65.40;34.33;;;;;;;;;;5073924;28;20021;-70
2023/03/04 04:55:34;;;;;;;68.50;34.13;;;;;;;;;;5074119;28;20078;-69
2023/03/04 04:58:20;;;;;;;53.35;29.98;;;;;;;;;;5059420;28;20061;-69
2023/03/04 05:01:06;;;;;;;56.17;30.02;;;;;;;;;;5073700;28;20385;-69
2023/03/04 05:03:54;;;;;;;57.55;29.30;;;;;;;;;;5059422;28;20032;-69
2023/03/04 05:06:40;;;;;;;52.55;29.55;;;;;;;;;;5074416;28;20033;-69
2023/03/04 05:09:25;;;;;;;56.28;29.77;;;;;;;;;;5060019;28;20044;-69
2023/03/04 05:12:11;;;;;;;54.05;30.17;;;;;;;;;;5073773;28;20029;-70
2023/03/04 05:14:57;;;;;;;57.90;29.05;;;;;;;;;;5073750;28;20055;-71
2023/03/04 05:17:42;;;;;;;53.45;28.38;;;;;;;;;;5076089;28;20074;-68
2023/03/04 05:20:28;;;;;;;51.13;27.00;;;;;;;;;;5063856;28;20028;-70
2023/03/04 05:23:13;;;;;;;50.88;27.38;;;;;;;;;;5077922;28;20468;-69
2023/03/04 05:25:59;;;;;;;48.97;26.05;;;;;;;;;;5078363;28;20035;-70
2023/03/04 05:28:45;;;;;;;52.67;28.83;;;;;;;;;;5078062;28;20095;-70
2023/03/04 05:31:31;;;;;;;50.08;27.58;;;;;;;;;;5077983;28;20362;-70
2023/03/04 05:34:16;;;;;;;52.65;26.88;;;;;;;;;;5078324;28;20031;-70
2023/03/04 05:37:02;;;;;;;48.38;25.83;;;;;;;;;;5077035;28;20338;-71
2023/03/04 05:39:47;;;;;;;51.40;26.10;;;;;;;;;;5077403;28;20082;-69
2023/03/04 05:42:33;;;;;;;50.60;26.00;;;;;;;;;;5076850;28;20433;-72
2023/03/04 05:45:19;;;;;;;48.47;26.17;;;;;;;;;;5077570;28;20024;-70
2023/03/04 05:48:04;;;;;;;48.85;26.52;;;;;;;;;;5077598;28;20054;-69
2023/03/04 05:50:57;;;;;;;49.45;26.75;;;;;;;;;;5077473;28;20346;-70
2023/03/04 05:53:42;;;;;;;51.55;27.00;;;;;;;;;;5078815;28;20032;-70
2023/03/04 05:56:29;;;;;;;109.25;55.60;;;;;;;;;;5077541;28;20028;-70
2023/03/04 05:59:19;;;;;;;92.32;46.75;;;;;;;;;;5077146;28;20369;-69
2023/03/04 06:02:04;;;;;;;66.97;37.47;;;;;;;;;;5077090;28;20465;-70
2023/03/04 06:04:50;;;;;;;55.20;28.67;;;;;;;;;;5054450;28;20020;-70
2023/03/04 06:07:35;;;;;;;50.70;27.20;;;;;;;;;;5077172;28;20016;-70
2023/03/04 06:10:21;;;;;;;53.97;27.65;;;;;;;;;;5077395;28;20048;-71
2023/03/04 06:13:07;;;;;;;49.78;26.55;;;;;;;;;;5077423;28;20104;-70
2023/03/04 06:15:54;;;;;;;51.45;26.55;;;;;;;;;;5077445;28;20020;-70
2023/03/04 06:18:39;;;;;;;48.08;26.77;;;;;;;;;;5077129;28;20024;-69
2023/03/04 06:21:25;;;;;;;55.47;28.23;;;;;;;;;;5062979;28;20020;-70
2023/03/04 06:24:11;;;;;;;52.45;29.02;;;;;;;;;;5077078;28;20448;-69
2023/03/04 06:26:56;;;;;;;59.10;30.88;;;;;;;;;;5077161;28;20047;-70
2023/03/04 06:29:42;;;;;;;55.17;29.15;;;;;;;;;;5076362;28;20031;-70
2023/03/04 06:32:27;;;;;;;53.20;27.35;;;;;;;;;;5076527;28;20025;-70
2023/03/04 06:35:14;;;;;;;52.05;27.45;;;;;;;;;;5077866;28;20020;-70
2023/03/04 06:38:00;;;;;;;51.05;26.90;;;;;;;;;;5076559;28;20032;-69
2023/03/04 06:40:45;;;;;;;50.38;25.67;;;;;;;;;;5077553;28;20031;-71
2023/03/04 06:43:31;;;;;;;50.85;26.40;;;;;;;;;;5076881;28;20028;-69
2023/03/04 06:46:16;;;;;;;46.10;27.40;;;;;;;;;;5076772;28;20342;-70
2023/03/04 06:49:02;;;;;;;52.50;28.67;;;;;;;;;;5076732;28;20090;-71
2023/03/04 06:51:48;;;;;;;49.83;27.42;;;;;;;;;;5062202;28;20051;-71
2023/03/04 06:54:33;;;;;;;46.47;26.35;;;;;;;;;;5062602;28;20445;-71
2023/03/04 06:57:19;;;;;;;47.55;26.63;;;;;;;;;;5077930;28;20032;-73
2023/03/04 07:00:05;;;;;;;48.45;27.23;;;;;;;;;;5076441;28;20525;-71
2023/03/04 07:02:51;;;;;;;49.55;27.85;;;;;;;;;;5076961;28;20086;-70
2023/03/04 07:05:36;;;;;;;48.03;27.33;;;;;;;;;;5061850;28;20028;-71
2023/03/04 07:08:22;;;;;;;51.00;28.23;;;;;;;;;;5076246;28;20310;-69
2023/03/04 07:11:07;;;;;;;49.85;28.95;;;;;;;;;;5062394;28;20024;-71
2023/03/04 07:13:53;;;;;;;54.50;29.48;;;;;;;;;;5075939;28;20078;-71
2023/03/04 07:16:39;;;;;;;51.33;29.15;;;;;;;;;;5076210;28;20090;-71
2023/03/04 07:19:24;;;;;;;49.42;29.77;;;;;;;;;;5061315;28;20039;-70
2023/03/04 07:22:10;;;;;;;49.53;26.48;;;;;;;;;;5061441;28;20025;-71
2023/03/04 07:24:55;;;;;;;46.95;25.33;;;;;;;;;;5075778;28;20035;-70
2023/03/04 07:27:41;;;;;;;48.08;25.25;;;;;;;;;;5075583;28;20017;-69
2023/03/04 07:30:27;;;;;;;39.58;23.65;;;;;;;;;;5075783;28;20408;-70
2023/03/04 07:33:12;;;;;;;38.10;22.75;;;;;;;;;;5076140;28;20009;-70
2023/03/04 07:35:58;;;;;;;41.33;23.88;;;;;;;;;;5075523;28;20349;-71
2023/03/04 07:38:45;;;;;;;31.85;19.88;;;;;;;;;;5075455;28;20013;-70
2023/03/04 07:41:35;;;;;;;38.80;22.35;;;;;;;;;;5074331;28;20036;-71
2023/03/04 07:44:20;;;;;;;47.78;26.75;;;;;;;;;;5076264;28;20024;-69
2023/03/04 07:47:06;;;;;;;43.28;24.85;;;;;;;;;;5060678;28;20078;-71
2023/03/04 07:49:52;;;;;;;35.72;19.70;;;;;;;;;;5075538;28;20129;-71
2023/03/04 07:52:41;;;;;;;34.20;19.25;;;;;;;;;;5075877;28;20460;-71
2023/03/04 07:55:29;;;;;;;32.70;19.15;;;;;;;;;;5075813;28;20035;-69
2023/03/04 07:58:18;;;;;;;32.45;18.67;;;;;;;;;;5075597;28;20102;-70
2023/03/04 08:01:08;;;;;;;34.20;19.67;;;;;;;;;;5074608;28;20054;-72
2023/03/04 08:03:53;;;;;;;30.67;19.17;;;;;;;;;;5076491;28;20018;-70
2023/03/04 08:06:39;;;;;;;32.65;19.70;;;;;;;;;;5075399;28;20019;-71
2023/03/04 08:09:25;;;;;;;29.05;18.67;;;;;;;;;;5076040;28;20052;-70
2023/03/04 08:12:11;;;;;;;29.63;18.75;;;;;;;;;;5060677;28;20527;-71
2023/03/04 08:14:56;;;;;;;30.25;18.70;;;;;;;;;;5074758;28;20064;-70
2023/03/04 08:17:42;;;;;;;26.75;17.00;;;;;;;;;;5061034;28;20031;-71
2023/03/04 08:20:27;;;;;;;31.02;18.33;;;;;;;;;;5060095;28;20095;-71
2023/03/04 08:23:13;;;;;;;29.98;18.30;;;;;;;;;;5074803;28;20210;-71
2023/03/04 08:25:58;;;;;;;32.10;19.60;;;;;;;;;;5060891;28;20017;-71
2023/03/04 08:28:44;;;;;;;37.45;21.13;;;;;;;;;;5075101;28;20100;-71
2023/03/04 08:31:30;;;;;;;33.92;21.10;;;;;;;;;;5074847;28;20033;-71
2023/03/04 08:34:17;;;;;;;35.45;21.73;;;;;;;;;;5074602;28;20023;-72
2023/03/04 08:37:03;;;;;;;35.80;21.90;;;;;;;;;;5074677;28;20023;-71
2023/03/04 08:39:48;;;;;;;35.75;21.35;;;;;;;;;;5075988;28;20031;-70
2023/03/04 08:42:34;;;;;;;36.63;22.17;;;;;;;;;;5074512;28;20389;-71
2023/03/04 08:45:19;;;;;;;34.83;22.25;;;;;;;;;;5074356;28;20360;-71
2023/03/04 08:48:05;;;;;;;40.88;24.88;;;;;;;;;;5074927;28;20032;-70
2023/03/04 08:50:51;;;;;;;39.75;24.25;;;;;;;;;;5059605;28;20047;-70
2023/03/04 08:53:37;;;;;;;37.80;23.65;;;;;;;;;;5060358;28;20397;-70
2023/03/04 08:56:22;;;;;;;41.40;24.20;;;;;;;;;;5076248;28;20027;-69
2023/03/04 08:59:08;;;;;;;39.85;25.15;;;;;;;;;;5075966;28;20020;-71
2023/03/04 09:01:53;;;;;;;38.03;24.23;;;;;;;;;;5060540;28;20040;-70
2023/03/04 09:04:40;;;;;;;39.33;24.60;;;;;;;;;;5059916;28;20052;-70
2023/03/04 09:07:26;;;;;;;38.42;24.77;;;;;;;;;;5074349;28;20020;-69
2023/03/04 09:10:11;;;;;;;40.58;25.42;;;;;;;;;;5060004;28;20028;-71
2023/03/04 09:12:57;;;;;;;41.20;25.20;;;;;;;;;;5074463;28;20031;-70
2023/03/04 09:15:46;;;;;;;36.85;23.38;;;;;;;;;;5074505;28;20078;-70
2023/03/04 09:18:32;;;;;;;38.47;24.95;;;;;;;;;;5059190;28;20012;-70
2023/03/04 09:21:17;;;;;;;35.50;22.75;;;;;;;;;;5074349;28;20082;-69
2023/03/04 09:24:03;;;;;;;37.28;24.40;;;;;;;;;;5074424;28;20094;-71
2023/03/04 09:26:50;;;;;;;41.63;25.88;;;;;;;;;;5073762;28;20349;-70
2023/03/04 09:29:35;;;;;;;36.15;23.55;;;;;;;;;;5074099;28;20031;-71
2023/03/04 09:32:21;;;;;;;37.33;23.52;;;;;;;;;;5073910;28;20020;-70
2023/03/04 09:35:07;;;;;;;39.28;24.90;;;;;;;;;;5073697;28;20334;-70
2023/03/04 09:37:53;;;;;;;37.53;25.48;;;;;;;;;;5073748;28;20416;-71
2023/03/04 09:40:40;;;;;;;37.08;23.90;;;;;;;;;;5074475;28;20381;-70
2023/03/04 09:43:28;;;;;;;43.17;26.30;;;;;;;;;;5072868;28;20034;-71
2023/03/04 09:46:33;;;;;;;37.88;24.88;;;;;;;;;;5074037;28;20032;-70
2023/03/04 09:49:20;;;;;;;38.80;23.85;;;;;;;;;;5074602;28;20012;-70
2023/03/04 09:52:25;;;;;;;34.95;23.38;;;;;;;;;;5059800;28;20032;-70
2023/03/04 09:55:20;;;;;;;33.13;21.83;;;;;;;;;;5073953;28;20024;-70
2023/03/04 09:58:11;;;;;;;35.00;22.15;;;;;;;;;;5073607;28;20174;-70
2023/03/04 10:01:02;;;;;;;34.75;21.58;;;;;;;;;;5073310;28;20041;-71
2023/03/04 10:03:58;;;;;;;38.47;22.27;;;;;;;;;;5060582;28;20078;-71
2023/03/04 10:06:50;;;;;;;33.78;21.92;;;;;;;;;;5077488;28;20032;-69
2023/03/04 10:09:51;;;;;;;35.00;21.60;;;;;;;;;;5078160;28;20082;-70
2023/03/04 10:12:39;;;;;;;36.03;23.15;;;;;;;;;;5077495;28;20394;-71
2023/03/04 10:15:24;;;;;;;36.30;22.70;;;;;;;;;;5077419;28;20032;-71
2023/03/04 10:18:26;;;;;;;31.20;20.80;;;;;;;;;;5077356;28;20025;-70
2023/03/04 10:21:14;;;;;;;35.97;21.30;;;;;;;;;;5076935;28;20029;-70
2023/03/04 10:24:21;;;;;;;32.53;20.10;;;;;;;;;;5077148;28;20020;-71
2023/03/04 10:27:10;;;;;;;33.20;21.10;;;;;;;;;;5078586;28;20024;-70
2023/03/04 10:29:57;;;;;;;31.45;20.15;;;;;;;;;;5076885;28;20039;-71
2023/03/04 10:32:45;;;;;;;29.52;20.10;;;;;;;;;;5076541;28;20036;-70
2023/03/04 10:35:33;;;;;;;32.55;20.27;;;;;;;;;;5076932;28;20032;-71
2023/03/04 10:38:20;;;;;;;29.13;18.35;;;;;;;;;;5076803;28;20099;-70
2023/03/04 10:41:16;;;;;;;33.50;17.83;;;;;;;;;;5077010;28;20364;-71
2023/03/04 10:44:07;;;;;;;28.65;18.17;;;;;;;;;;5079141;28;20365;-70
2023/03/04 10:46:55;;;;;;;33.25;19.88;;;;;;;;;;5076751;28;20035;-71
2023/03/04 10:49:51;;;;;;;31.60;20.02;;;;;;;;;;5076177;28;20085;-72
2023/03/04 10:52:45;;;;;;;29.73;20.02;;;;;;;;;;5076272;28;20027;-70
2023/03/04 10:55:41;;;;;;;29.27;18.95;;;;;;;;;;5076315;28;20102;-71
2023/03/04 10:58:27;;;;;;;29.60;18.98;;;;;;;;;;5077806;28;20356;-70
2023/03/04 11:01:14;;;;;;;31.42;20.33;;;;;;;;;;5076005;28;20041;-72
2023/03/04 11:04:00;;;;;;;32.10;20.92;;;;;;;;;;5076431;28;20020;-70
2023/03/04 11:06:45;;;;;;;36.67;23.00;;;;;;;;;;5076510;28;20322;-71
2023/03/04 11:09:31;;;;;;;29.05;19.40;;;;;;;;;;5076163;28;20017;-70
2023/03/04 11:12:19;;;;;;;33.45;21.83;;;;;;;;;;5076129;28;20445;-70
2023/03/04 11:15:16;;;;;;;31.85;21.30;;;;;;;;;;5075021;28;20436;-72
2023/03/04 11:18:04;;;;;;;33.22;20.85;;;;;;;;;;5076058;28;20333;-72
2023/03/04 11:20:51;;;;;;;36.85;23.33;;;;;;;;;;5055860;28;20039;-70
2023/03/04 11:23:46;;;;;;;30.50;21.73;;;;;;;;;;5054909;28;20013;-71
2023/03/04 11:26:31;;;;;;;33.85;22.25;;;;;;;;;;5055405;28;20032;-69
2023/03/04 11:29:20;;;;;;;30.98;21.92;;;;;;;;;;5054636;28;20052;-70
2023/03/04 11:32:05;;;;;;;39.63;25.75;;;;;;;;;;5054417;28;20032;-70
2023/03/04 11:34:51;;;;;;;36.25;23.73;;;;;;;;;;5054374;28;20021;-73
2023/03/04 11:37:44;;;;;;;40.67;26.27;;;;;;;;;;5040983;28;20397;-69
2023/03/04 11:40:42;;;;;;;38.53;24.80;;;;;;;;;;5055395;28;20482;-71
2023/03/04 11:43:34;;;;;;;33.22;21.48;;;;;;;;;;5054426;28;20029;-70
2023/03/04 11:46:25;;;;;;;31.52;21.50;;;;;;;;;;5041069;28;20013;-70
2023/03/04 11:49:20;;;;;;;35.45;23.80;;;;;;;;;;5041345;28;20096;-69
2023/03/04 11:52:06;;;;;;;34.35;22.30;;;;;;;;;;5040472;28;20025;-72
2023/03/04 11:55:23;;;;;;;30.00;21.17;;;;;;;;;;5040409;28;20366;-71
2023/03/04 11:58:15;;;;;;;27.63;20.73;;;;;;;;;;5054867;28;20028;-70
2023/03/04 12:01:04;;;;;;;31.83;21.42;;;;;;;;;;5067709;28;20480;-69
2023/03/04 12:04:08;;;;;;;32.63;20.23;;;;;;;;;;5075308;28;20044;-70
2023/03/04 12:06:59;;;;;;;27.92;19.90;;;;;;;;;;5074790;28;20032;-69
2023/03/04 12:09:54;;;;;;;33.10;21.20;;;;;;;;;;5074819;28;20020;-69
2023/03/04 12:12:45;;;;;;;30.02;21.05;;;;;;;;;;5073128;28;20107;-71
2023/03/04 12:15:36;;;;;;;28.88;19.98;;;;;;;;;;5075383;28;20105;-69
2023/03/04 12:18:40;;;;;;;29.98;20.42;;;;;;;;;;5074663;28;20024;-69
2023/03/04 12:21:41;;;;;;;27.67;19.85;;;;;;;;;;5073435;28;20020;-70
2023/03/04 12:24:47;;;;;;;31.20;20.85;;;;;;;;;;5073121;28;20449;-72
2023/03/04 12:27:42;;;;;;;34.08;21.30;;;;;;;;;;5074057;28;20020;-69
2023/03/04 12:30:27;;;;;;;32.78;21.13;;;;;;;;;;5073842;28;20508;-69
2023/03/04 12:33:31;;;;;;;31.98;20.08;;;;;;;;;;5073200;28;20032;-70
2023/03/04 12:36:17;;;;;;;28.20;19.27;;;;;;;;;;5059112;28;20024;-70
2023/03/04 12:39:21;;;;;;;28.80;19.02;;;;;;;;;;5058715;28;20112;-71
2023/03/04 12:42:10;;;;;;;28.70;19.67;;;;;;;;;;5074201;28;20086;-69
2023/03/04 12:45:14;;;;;;;28.63;19.52;;;;;;;;;;5058902;28;20103;-69
2023/03/04 12:48:18;;;;;;;27.75;19.70;;;;;;;;;;5074487;28;20103;-69
2023/03/04 12:51:09;;;;;;;26.48;18.30;;;;;;;;;;5058760;28;20031;-70
2023/03/04 12:53:58;;;;;;;33.13;19.15;;;;;;;;;;5058681;28;20361;-71
2023/03/04 12:57:04;;;;;;;27.90;19.60;;;;;;;;;;5074126;28;20024;-69
2023/03/04 13:00:08;;;;;;;31.85;19.65;;;;;;;;;;5056579;28;20050;-69
2023/03/04 13:02:58;;;;;;;28.25;18.52;;;;;;;;;;5058450;28;20106;-70
2023/03/04 13:06:10;;;;;;;31.88;18.48;;;;;;;;;;5060392;28;20523;-72
2023/03/04 13:09:14;;;;;;;32.05;17.70;;;;;;;;;;5055312;28;20040;-69
2023/03/04 13:12:14;;;;;;;25.17;16.98;;;;;;;;;;5072989;28;20499;-71
2023/03/04 13:15:06;;;;;;;26.52;17.55;;;;;;;;;;5074115;28;20032;-71
2023/03/04 13:17:53;;;;;;;30.15;18.38;;;;;;;;;;5072751;28;20024;-71
2023/03/04 13:20:39;;;;;;;25.10;18.17;;;;;;;;;;5059246;28;20023;-70
2023/03/04 13:23:27;;;;;;;26.30;18.02;;;;;;;;;;5073406;28;20082;-71
2023/03/04 13:26:42;;;;;;;28.02;18.50;;;;;;;;;;5073261;28;20025;-71
2023/03/04 13:29:28;;;;;;;26.08;17.42;;;;;;;;;;5068734;28;20028;-70
2023/03/04 13:32:33;;;;;;;25.30;17.42;;;;;;;;;;5058521;28;20036;-69
2023/03/04 13:35:38;;;;;;;28.63;18.02;;;;;;;;;;5073728;28;20020;-71
2023/03/04 13:38:26;;;;;;;27.48;18.05;;;;;;;;;;5075319;28;20016;-71
2023/03/04 13:41:15;;;;;;;24.02;17.73;;;;;;;;;;5077530;28;20024;-69
2023/03/04 13:44:04;;;;;;;25.88;17.30;;;;;;;;;;5077779;28;20424;-70
2023/03/04 13:46:50;;;;;;;26.50;17.25;;;;;;;;;;5076769;28;20100;-70
2023/03/04 13:49:36;;;;;;;28.58;18.08;;;;;;;;;;5077002;28;20025;-71
2023/03/04 13:52:43;;;;;;;27.35;17.05;;;;;;;;;;5063158;28;20111;-70
2023/03/04 13:55:39;;;;;;;27.75;17.20;;;;;;;;;;5077672;28;20083;-70
2023/03/04 13:58:26;;;;;;;27.60;16.63;;;;;;;;;;5077137;28;20020;-69
2023/03/04 14:01:25;;;;;;;25.80;15.93;;;;;;;;;;5077464;28;20054;-70
2023/03/04 14:04:17;;;;;;;27.13;16.25;;;;;;;;;;5063331;28;20444;-70
2023/03/04 14:07:17;;;;;;;26.25;16.88;;;;;;;;;;5075971;28;20012;-70
2023/03/04 14:10:12;;;;;;;23.33;16.48;;;;;;;;;;5076473;28;20063;-71
2023/03/04 14:12:59;;;;;;;25.30;15.50;;;;;;;;;;5061594;28;20357;-70
2023/03/04 14:15:52;;;;;;;26.38;16.48;;;;;;;;;;5077048;28;20020;-70
2023/03/04 14:18:39;;;;;;;26.55;15.73;;;;;;;;;;5077036;28;20031;-70
2023/03/04 14:21:24;;;;;;;26.50;16.08;;;;;;;;;;5061759;28;20457;-70
2023/03/04 14:24:14;;;;;;;22.90;15.77;;;;;;;;;;5076642;28;20040;-71
2023/03/04 14:27:09;;;;;;;24.02;14.95;;;;;;;;;;5075700;28;20017;-71
2023/03/04 14:29:58;;;;;;;26.35;15.18;;;;;;;;;;5077062;28;20020;-71
2023/03/04 14:32:44;;;;;;;27.35;15.98;;;;;;;;;;5076519;28;20024;-70
2023/03/04 14:35:30;;;;;;;23.35;15.43;;;;;;;;;;5076706;28;20024;-70
2023/03/04 14:38:16;;;;;;;25.73;16.08;;;;;;;;;;5076862;28;20082;-70
2023/03/04 14:41:05;;;;;;;24.45;15.32;;;;;;;;;;5075378;28;20411;-68
2023/03/04 14:44:00;;;;;;;23.35;15.98;;;;;;;;;;5075831;28;20021;-70
2023/03/04 14:46:51;;;;;;;28.08;15.40;;;;;;;;;;5076268;28;20037;-71
2023/03/04 14:49:38;;;;;;;26.13;16.35;;;;;;;;;;5076140;28;20009;-71
2023/03/04 14:52:31;;;;;;;26.15;16.00;;;;;;;;;;5076194;28;20048;-70
2023/03/04 14:55:21;;;;;;;29.98;17.38;;;;;;;;;;5076835;28;20024;-71
2023/03/04 14:58:07;;;;;;;28.45;17.02;;;;;;;;;;5076269;28;20031;-70
2023/03/04 15:01:02;;;;;;;28.98;16.52;;;;;;;;;;5061047;28;20045;-70
2023/03/04 15:04:07;;;;;;;26.77;16.25;;;;;;;;;;5076214;28;20349;-75
2023/03/04 15:06:53;;;;;;;31.58;17.55;;;;;;;;;;5075276;28;20096;-70
2023/03/04 15:09:40;;;;;;;25.38;15.70;;;;;;;;;;5076139;28;20103;-70
2023/03/04 15:12:27;;;;;;;26.02;15.95;;;;;;;;;;5076515;28;20025;-71
2023/03/04 15:15:31;;;;;;;26.48;15.93;;;;;;;;;;5076220;28;20020;-70
2023/03/04 15:18:19;;;;;;;25.42;15.65;;;;;;;;;;5075806;28;20407;-73
2023/03/04 15:21:25;;;;;;;22.40;15.43;;;;;;;;;;5075368;28;20035;-70
2023/03/04 15:24:12;;;;;;;25.27;15.38;;;;;;;;;;5073251;28;20040;-71
2023/03/04 15:26:58;;;;;;;25.67;16.10;;;;;;;;;;5075801;28;20100;-69
2023/03/04 15:29:43;;;;;;;25.50;14.82;;;;;;;;;;5075668;28;20159;-69
2023/03/04 15:32:29;;;;;;;25.60;15.65;;;;;;;;;;5074662;28;20017;-69
2023/03/04 15:35:16;;;;;;;25.30;15.10;;;;;;;;;;5075223;28;20017;-69
2023/03/04 15:38:05;;;;;;;27.55;15.55;;;;;;;;;;5075025;28;20452;-68
2023/03/04 15:40:50;;;;;;;25.67;14.85;;;;;;;;;;5074974;28;20074;-69
2023/03/04 15:43:36;;;;;;;30.20;16.83;;;;;;;;;;5075143;28;20032;-68
2023/03/04 15:46:22;;;;;;;30.05;16.10;;;;;;;;;;5075234;28;20078;-69
2023/03/04 15:49:08;;;;;;;29.30;15.82;;;;;;;;;;5074533;28;20016;-69
2023/03/04 15:51:54;;;;;;;28.33;15.25;;;;;;;;;;5074087;28;20021;-70
2023/03/04 15:54:39;;;;;;;22.45;14.07;;;;;;;;;;5075328;28;20373;-70
2023/03/04 15:57:26;;;;;;;23.33;13.98;;;;;;;;;;5074232;28;20030;-70
2023/03/04 16:00:12;;;;;;;26.20;15.43;;;;;;;;;;5075395;28;20436;-69
2023/03/04 16:02:57;;;;;;;23.58;15.10;;;;;;;;;;5074145;28;20348;-70
2023/03/04 16:05:44;;;;;;;29.02;15.90;;;;;;;;;;5075400;28;20373;-68
2023/03/04 16:08:29;;;;;;;22.90;14.85;;;;;;;;;;5075119;28;20017;-71
2023/03/04 16:11:17;;;;;;;25.50;16.02;;;;;;;;;;5075269;28;20028;-69
2023/03/04 16:14:02;;;;;;;29.25;16.33;;;;;;;;;;5074837;28;20460;-69
2023/03/04 16:16:49;;;;;;;25.23;15.93;;;;;;;;;;5075134;28;20033;-69
2023/03/04 16:19:34;;;;;;;29.52;16.48;;;;;;;;;;5074893;28;20034;-69